Anaya — WDE5689 — position and weather

sailwx.info

Track history (hours):
 
Tides and Currents Weather Stations Pressure Air Temp Water Temp Dewpoint Dewpoint Depression Visibility Wind Speed Wind Dir Waves Ship Positions

Anaya

Owner: MKL Holdings, LLC, Bellevue, WA. More information available from US FCC via Universal Licensing System and Coast Guard Vessel Documentation Center.

Last reported at 2016-Jun-03 23:34 UTC. Time now 2016-Jul-29 04:01 UTC.
Position N 50°24' W 125°11'.
Warning: this ship's position is 55 days out of date.

; draft 2 m.

Type: Pleasure craft. MMSI: 367370340.

Date/timePositionNaut miles runAvg speedWind from/ knotsBaromVisibWave heightAir tempDewpointWater temp
2016-Jun-03 23:34N 50°24' W 125°11'6 5.9
2016-Jun-03 22:33N 50°20' W 125°06'9 9.5
2016-Jun-03 21:34N 50°12' W 124°57'10 9.7
2016-Jun-03 20:33N 50°03' W 124°51'1010.2
2016-Jun-03 19:33N 49°55' W 124°41'1111.4
2016-Jun-03 18:34N 49°47' W 124°30'1312.8
2016-Jun-03 17:33N 49°39' W 124°14'1312.7
2016-Jun-03 16:33N 49°31' W 123°59'1212.1
2016-Jun-03 15:34N 49°25' W 123°42'1212.4
2016-Jun-03 14:34N 49°20' W 123°25'1212.0
2016-Jun-03 13:34N 49°18' W 123°07'1 0.9
2016-Jun-03 12:34N 49°17' W 123°07'0 0.0
2016-Jun-03 11:33N 49°17' W 123°07'0 0.0
2016-Jun-03 10:34N 49°17' W 123°07'0 0.0
2016-Jun-03 09:34N 49°17' W 123°07'0 0.0
2016-Jun-03 08:34N 49°17' W 123°07'0 0.0
2016-Jun-03 07:34N 49°17' W 123°07'0 0.0
2016-Jun-03 06:34N 49°17' W 123°07'0 0.0
2016-Jun-03 05:34N 49°17' W 123°07'0 0.0
2016-Jun-03 04:34N 49°17' W 123°07'0 0.0
2016-Jun-03 03:34N 49°17' W 123°07'0 0.0
2016-Jun-03 02:34N 49°17' W 123°07'0 0.0
2016-Jun-03 01:34N 49°17' W 123°07'0 0.0
2016-Jun-03 00:34N 49°17' W 123°07'0 0.0
2016-Jun-02 23:34N 49°17' W 123°07'0 0.0
2016-Jun-02 22:34N 49°17' W 123°07'0 0.0
2016-Jun-02 21:34N 49°17' W 123°07'0 0.0
2016-Jun-02 20:34N 49°17' W 123°07'0 0.0
2016-Jun-02 19:34N 49°17' W 123°07'0 0.0
2016-Jun-02 18:34N 49°17' W 123°07'0 0.0
2016-Jun-02 17:34N 49°17' W 123°07'0 0.0
2016-Jun-02 16:34N 49°17' W 123°07'0 0.0
2016-Jun-02 15:34N 49°17' W 123°07'0 0.0
2016-Jun-02 14:33N 49°17' W 123°07'0 0.0
2016-Jun-02 13:34N 49°17' W 123°07'0 0.0
2016-Jun-02 12:34N 49°17' W 123°07'0 0.0
2016-Jun-02 11:34N 49°17' W 123°07'0 0.0
2016-Jun-02 10:34N 49°17' W 123°07'0 0.0
2016-Jun-02 09:34N 49°17' W 123°07'0 0.0
2016-Jun-02 08:34N 49°17' W 123°07'0 0.0
2016-Jun-02 07:34N 49°17' W 123°07'0 0.0
2016-Jun-02 06:34N 49°17' W 123°07'0 0.0
2016-Jun-02 05:34N 49°17' W 123°07'0 0.0
2016-Jun-02 04:34N 49°17' W 123°07'0 0.0
2016-Jun-02 03:33N 49°17' W 123°07'0 0.0
2016-Jun-02 02:34N 49°17' W 123°07'0 0.0
2016-Jun-02 01:34N 49°17' W 123°07'0 0.1
2016-Jun-02 00:34N 49°17' W 123°07'7 6.5
2016-Jun-01 23:34N 49°17' W 123°17'1312.5
2016-Jun-01 22:33N 49°07' W 123°29'1110.2
2016-Jun-01 21:30N 48°56' W 123°31'1212.6
2016-Jun-01 20:33N 48°46' W 123°21'1211.6
2016-Jun-01 19:32N 48°37' W 123°10'  
Track history (hours):
 
Tides and Currents Weather Stations Pressure Air Temp Water Temp Dewpoint Dewpoint Depression Visibility Wind Speed Wind Dir Waves Ship Positions

Anaya

Owner: MKL Holdings, LLC, Bellevue, WA. More information available from US FCC via Universal Licensing System and Coast Guard Vessel Documentation Center.

Last reported at 2016-Jun-03 23:34 UTC. Time now 2016-Jul-29 04:01 UTC.
Position N 50°24' W 125°11'.
Warning: this ship's position is 55 days out of date.

; draft 2 m.

Type: Pleasure craft. MMSI: 367370340.

Date/timePositionNaut miles runAvg speedWind from/ knotsBaromVisibWave heightAir tempDewpointWater temp
2016-Jun-03 23:34N 50°24' W 125°11'6 5.9
2016-Jun-03 22:33N 50°20' W 125°06'9 9.5
2016-Jun-03 21:34N 50°12' W 124°57'10 9.7
2016-Jun-03 20:33N 50°03' W 124°51'1010.2
2016-Jun-03 19:33N 49°55' W 124°41'1111.4
2016-Jun-03 18:34N 49°47' W 124°30'1312.8
2016-Jun-03 17:33N 49°39' W 124°14'1312.7
2016-Jun-03 16:33N 49°31' W 123°59'1212.1
2016-Jun-03 15:34N 49°25' W 123°42'1212.4
2016-Jun-03 14:34N 49°20' W 123°25'1212.0
2016-Jun-03 13:34N 49°18' W 123°07'1 0.9
2016-Jun-03 12:34N 49°17' W 123°07'0 0.0
2016-Jun-03 11:33N 49°17' W 123°07'0 0.0
2016-Jun-03 10:34N 49°17' W 123°07'0 0.0
2016-Jun-03 09:34N 49°17' W 123°07'0 0.0
2016-Jun-03 08:34N 49°17' W 123°07'0 0.0
2016-Jun-03 07:34N 49°17' W 123°07'0 0.0
2016-Jun-03 06:34N 49°17' W 123°07'0 0.0
2016-Jun-03 05:34N 49°17' W 123°07'0 0.0
2016-Jun-03 04:34N 49°17' W 123°07'0 0.0
2016-Jun-03 03:34N 49°17' W 123°07'0 0.0
2016-Jun-03 02:34N 49°17' W 123°07'0 0.0
2016-Jun-03 01:34N 49°17' W 123°07'0 0.0
2016-Jun-03 00:34N 49°17' W 123°07'0 0.0
2016-Jun-02 23:34N 49°17' W 123°07'0 0.0
2016-Jun-02 22:34N 49°17' W 123°07'0 0.0
2016-Jun-02 21:34N 49°17' W 123°07'0 0.0
2016-Jun-02 20:34N 49°17' W 123°07'0 0.0
2016-Jun-02 19:34N 49°17' W 123°07'0 0.0
2016-Jun-02 18:34N 49°17' W 123°07'0 0.0
2016-Jun-02 17:34N 49°17' W 123°07'0 0.0
2016-Jun-02 16:34N 49°17' W 123°07'0 0.0
2016-Jun-02 15:34N 49°17' W 123°07'0 0.0
2016-Jun-02 14:33N 49°17' W 123°07'0 0.0
2016-Jun-02 13:34N 49°17' W 123°07'0 0.0
2016-Jun-02 12:34N 49°17' W 123°07'0 0.0
2016-Jun-02 11:34N 49°17' W 123°07'0 0.0
2016-Jun-02 10:34N 49°17' W 123°07'0 0.0
2016-Jun-02 09:34N 49°17' W 123°07'0 0.0
2016-Jun-02 08:34N 49°17' W 123°07'0 0.0
2016-Jun-02 07:34N 49°17' W 123°07'0 0.0
2016-Jun-02 06:34N 49°17' W 123°07'0 0.0
2016-Jun-02 05:34N 49°17' W 123°07'0 0.0
2016-Jun-02 04:34N 49°17' W 123°07'0 0.0
2016-Jun-02 03:33N 49°17' W 123°07'0 0.0
2016-Jun-02 02:34N 49°17' W 123°07'0 0.0
2016-Jun-02 01:34N 49°17' W 123°07'0 0.1
2016-Jun-02 00:34N 49°17' W 123°07'7 6.5
2016-Jun-01 23:34N 49°17' W 123°17'1312.5
2016-Jun-01 22:33N 49°07' W 123°29'1110.2
2016-Jun-01 21:30N 48°56' W 123°31'1212.6
2016-Jun-01 20:33N 48°46' W 123°21'1211.6
2016-Jun-01 19:32N 48°37' W 123°10'  

Dump ship's entire track history